createdAt,value
2023-04-01T00:02:05.527Z,7.63
2023-04-01T00:04:33.254Z,9.77
2023-04-01T00:07:01.219Z,9.00
2023-04-01T00:09:29.998Z,13.53
2023-04-01T00:11:58.982Z,14.60
2023-04-01T00:14:26.465Z,13.83
2023-04-01T00:16:54.173Z,12.00
2023-04-01T00:19:21.675Z,8.17
2023-04-01T00:21:49.329Z,4.53
2023-04-01T00:24:16.831Z,5.37
2023-04-01T00:26:45.465Z,5.20
2023-04-01T00:29:14.307Z,5.60
2023-04-01T00:31:41.830Z,5.40
2023-04-01T00:34:09.363Z,5.73
2023-04-01T00:36:36.850Z,5.97
2023-04-01T00:39:04.556Z,5.90
2023-04-01T00:41:32.019Z,5.70
2023-04-01T00:46:54.381Z,6.37
2023-04-01T00:49:26.046Z,6.50
2023-04-01T00:51:56.734Z,7.57
2023-04-01T00:54:26.528Z,5.53
2023-04-01T00:56:58.861Z,5.80
2023-04-01T00:59:28.514Z,6.37
2023-04-01T01:01:57.477Z,6.70
2023-04-01T01:04:26.915Z,6.87
2023-04-01T01:07:04.141Z,6.97
2023-04-01T01:09:41.557Z,6.20
2023-04-01T01:12:15.009Z,5.97
2023-04-01T01:14:54.378Z,5.27
2023-04-01T01:17:31.590Z,5.33
2023-04-01T01:20:25.919Z,5.60
2023-04-01T01:23:18.771Z,7.03
2023-04-01T01:25:51.460Z,5.90
2023-04-01T01:28:35.405Z,7.30
2023-04-01T01:31:14.587Z,6.10
2023-04-01T01:33:55.330Z,6.60
2023-04-01T01:36:27.149Z,8.10
2023-04-01T01:38:55.325Z,10.23
2023-04-01T01:41:24.456Z,7.77
2023-04-01T01:43:54.769Z,6.93
2023-04-01T01:46:25.880Z,5.20
2023-04-01T01:48:54.224Z,6.33
2023-04-01T01:51:24.683Z,7.30
2023-04-01T01:53:52.174Z,17.43
2023-04-01T01:56:23.582Z,11.70
2023-04-01T01:58:54.668Z,11.97
2023-04-01T02:01:26.561Z,9.83
2023-04-01T02:03:55.407Z,15.13
2023-04-01T02:06:27.931Z,18.80
2023-04-01T02:08:58.097Z,20.33
2023-04-01T02:11:30.455Z,18.33
2023-04-01T02:14:04.701Z,21.03
2023-04-01T02:16:37.023Z,21.40
2023-04-01T02:19:08.278Z,21.67
2023-04-01T02:21:38.867Z,24.53
2023-04-01T02:24:09.817Z,22.97
2023-04-01T02:26:37.339Z,20.03
2023-04-01T02:29:07.419Z,13.57
2023-04-01T02:31:36.183Z,15.67
2023-04-01T02:34:05.355Z,8.63
2023-04-01T02:36:33.816Z,16.43
2023-04-01T02:39:05.231Z,10.90
2023-04-01T02:41:32.758Z,10.83
2023-04-01T02:44:00.323Z,15.57
2023-04-01T02:46:27.869Z,10.20
2023-04-01T02:48:55.710Z,11.40
2023-04-01T02:51:23.177Z,17.00
2023-04-01T02:53:50.948Z,10.60
2023-04-01T02:56:20.528Z,8.03
2023-04-01T02:58:48.017Z,6.60
2023-04-01T03:01:15.595Z,9.60
2023-04-01T03:03:43.134Z,12.30
2023-04-01T03:06:12.973Z,12.00
2023-04-01T03:08:40.555Z,19.90
2023-04-01T03:11:08.321Z,14.03
2023-04-01T03:13:37.139Z,16.73
2023-04-01T03:16:05.082Z,15.67
2023-04-01T03:18:32.556Z,14.77
2023-04-01T03:21:14.338Z,17.80
2023-04-01T03:23:41.818Z,16.07
2023-04-01T03:26:09.671Z,12.23
2023-04-01T03:28:38.807Z,8.17
2023-04-01T03:31:07.083Z,8.00
2023-04-01T03:33:34.665Z,11.00
2023-04-01T03:36:02.206Z,8.80
2023-04-01T03:38:29.717Z,13.23
2023-04-01T03:40:57.187Z,13.10
2023-04-01T03:43:24.651Z,11.73
2023-04-01T03:45:55.425Z,16.40
2023-04-01T03:48:22.942Z,16.57
2023-04-01T03:50:50.712Z,17.33
2023-04-01T03:53:18.210Z,14.27
2023-04-01T03:55:45.952Z,13.13
2023-04-01T03:58:13.646Z,18.00
2023-04-01T04:00:41.628Z,20.17
2023-04-01T04:03:10.763Z,18.23
2023-04-01T04:05:38.287Z,17.60
2023-04-01T04:08:06.149Z,23.57
2023-04-01T04:10:33.647Z,21.63
2023-04-01T04:13:01.090Z,21.03
2023-04-01T04:15:28.550Z,18.67
2023-04-01T04:17:56.034Z,21.17
2023-04-01T04:20:24.861Z,21.90
2023-04-01T04:22:52.339Z,23.27
2023-04-01T04:25:19.819Z,16.90
2023-04-01T04:27:47.450Z,7.47
2023-04-01T04:30:15.591Z,8.17
2023-04-01T04:32:43.175Z,6.93
2023-04-01T04:35:10.819Z,12.23
2023-04-01T04:37:39.618Z,11.53
2023-04-01T04:40:08.637Z,7.17
2023-04-01T04:42:36.135Z,7.37
2023-04-01T04:45:03.940Z,9.33
2023-04-01T04:47:31.445Z,8.50
2023-04-01T04:49:58.922Z,9.87
2023-04-01T04:52:26.374Z,10.07
2023-04-01T04:54:55.290Z,8.00
2023-04-01T04:57:22.883Z,8.30
2023-04-01T04:59:50.492Z,7.17
2023-04-01T05:02:18.525Z,9.17
2023-04-01T05:04:45.974Z,8.00
2023-04-01T05:07:13.603Z,8.47
2023-04-01T05:09:41.232Z,6.43
2023-04-01T05:12:10.071Z,5.20
2023-04-01T05:14:37.672Z,6.63
2023-04-01T05:17:05.324Z,6.67
2023-04-01T05:19:32.858Z,6.50
2023-04-01T05:22:00.334Z,4.63
2023-04-01T05:24:27.884Z,5.50
2023-04-01T05:26:56.866Z,5.23
2023-04-01T05:29:26.136Z,7.17
2023-04-01T05:31:53.783Z,6.37
2023-04-01T05:34:21.253Z,6.67
2023-04-01T05:36:48.720Z,9.73
2023-04-01T05:39:16.357Z,9.43
2023-04-01T05:41:44.047Z,8.57
2023-04-01T05:44:13.561Z,12.98
2023-04-01T05:46:42.584Z,19.60
2023-04-01T05:49:10.164Z,18.90
2023-04-01T05:51:37.638Z,16.57
2023-04-01T05:54:06.714Z,15.73
2023-04-01T05:56:34.198Z,12.82
2023-04-01T05:59:01.668Z,11.37
2023-04-01T06:01:29.137Z,11.87
2023-04-01T06:03:58.102Z,10.70
2023-04-01T06:06:28.077Z,10.88
2023-04-01T06:08:58.435Z,12.53
2023-04-01T06:11:34.630Z,10.97
2023-04-01T06:14:12.159Z,8.63
2023-04-01T06:16:51.646Z,10.83
2023-04-01T06:19:31.214Z,12.23
2023-04-01T06:22:30.044Z,9.87
2023-04-01T06:25:15.114Z,9.13
2023-04-01T06:28:02.918Z,12.98
2023-04-01T06:30:40.265Z,7.13
2023-04-01T06:33:29.807Z,6.30
2023-04-01T06:36:19.988Z,5.95
2023-04-01T06:39:00.571Z,5.07
2023-04-01T06:41:46.754Z,5.43
2023-04-01T06:44:22.256Z,4.13
2023-04-01T06:46:59.291Z,7.60
2023-04-01T06:49:46.463Z,6.95
2023-04-01T06:52:23.683Z,5.43
2023-04-01T06:54:55.298Z,5.32
2023-04-01T06:57:30.412Z,4.85
2023-04-01T07:00:01.747Z,11.13
2023-04-01T07:02:36.831Z,8.35
2023-04-01T07:05:06.259Z,9.45
2023-04-01T07:07:41.249Z,9.70
2023-04-01T07:10:14.836Z,6.78
2023-04-01T07:12:48.793Z,5.68
2023-04-01T07:15:21.213Z,5.50
2023-04-01T07:17:54.480Z,4.93
2023-04-01T07:20:28.176Z,4.95
2023-04-01T07:23:00.513Z,6.30
2023-04-01T07:25:31.264Z,7.10
2023-04-01T07:28:03.021Z,6.32
2023-04-01T07:30:37.851Z,5.45
2023-04-01T07:33:11.774Z,4.35
2023-04-01T07:35:45.402Z,4.38
2023-04-01T07:38:25.014Z,5.50
2023-04-01T07:41:05.135Z,7.57
2023-04-01T07:43:44.256Z,6.60
2023-04-01T07:46:23.456Z,7.45
2023-04-01T07:48:58.684Z,20.05
2023-04-01T07:51:31.225Z,10.60
2023-04-01T07:54:08.805Z,11.63
2023-04-01T07:56:44.720Z,13.90
2023-04-01T07:59:23.758Z,22.33
2023-04-01T08:02:00.297Z,22.13
2023-04-01T08:04:43.509Z,19.85
2023-04-01T08:07:15.371Z,22.80
2023-04-01T08:09:51.868Z,17.50
2023-04-01T08:12:29.665Z,18.52
2023-04-01T08:15:10.565Z,19.42
2023-04-01T08:17:46.767Z,27.50
2023-04-01T08:20:27.176Z,4.00
2023-04-01T08:23:01.831Z,6.05
2023-04-01T08:25:32.886Z,6.18
2023-04-01T08:28:06.414Z,6.88
2023-04-01T08:30:43.154Z,4.78
2023-04-01T08:33:16.644Z,5.85
2023-04-01T08:35:51.229Z,2.30
2023-04-01T08:38:23.664Z,2.50
2023-04-01T08:41:01.701Z,2.10
2023-04-01T08:43:45.841Z,2.03
2023-04-01T08:46:37.080Z,2.47
2023-04-01T08:49:24.707Z,3.20
2023-04-01T08:52:16.976Z,2.75
2023-04-01T08:55:11.731Z,2.67
2023-04-01T08:57:56.770Z,2.42
2023-04-01T09:00:32.487Z,3.00
2023-04-01T09:03:36.158Z,3.25
2023-04-01T09:06:26.024Z,2.50
2023-04-01T09:09:08.371Z,2.00
2023-04-01T09:11:51.585Z,2.42
2023-04-01T09:14:35.209Z,2.47
2023-04-01T09:17:37.574Z,2.53
2023-04-01T09:20:22.034Z,2.53
2023-04-01T09:23:09.886Z,3.25
2023-04-01T09:26:01.628Z,2.92
2023-04-01T09:28:35.796Z,3.60
2023-04-01T09:31:27.797Z,3.05
2023-04-01T09:34:23.428Z,3.05
2023-04-01T09:37:01.211Z,3.22
2023-04-01T09:39:38.225Z,3.00
2023-04-01T09:42:24.378Z,3.47
2023-04-01T09:44:59.436Z,3.53
2023-04-01T09:47:45.968Z,3.15
2023-04-01T09:50:31.630Z,2.97
2023-04-01T09:53:14.281Z,3.20
2023-04-01T09:56:04.394Z,3.85
2023-04-01T09:58:59.273Z,2.97
2023-04-01T10:01:45.984Z,2.85
2023-04-01T10:04:33.553Z,2.53
2023-04-01T10:07:28.347Z,2.20
2023-04-01T10:10:28.037Z,3.03
2023-04-01T10:13:16.669Z,2.60
2023-04-01T10:16:12.299Z,3.08
2023-04-01T10:18:58.540Z,2.80
2023-04-01T10:21:59.818Z,3.65
2023-04-01T10:25:05.728Z,4.38
2023-04-01T10:28:08.204Z,3.75
2023-04-01T10:31:26.192Z,2.97
2023-04-01T10:34:23.679Z,3.00
2023-04-01T10:36:56.960Z,2.97
2023-04-01T10:39:54.644Z,2.70
2023-04-01T10:42:53.307Z,2.17
2023-04-01T10:45:53.300Z,2.95
2023-04-01T10:48:46.681Z,4.55
2023-04-01T10:51:23.304Z,2.78
2023-04-01T10:54:21.140Z,3.38
2023-04-01T10:56:56.595Z,2.50
2023-04-01T10:59:57.713Z,2.03
2023-04-01T11:03:04.771Z,2.65
2023-04-01T11:06:01.211Z,2.97
2023-04-01T11:09:08.099Z,2.50
2023-04-01T11:12:20.519Z,2.92
2023-04-01T11:15:33.377Z,3.33
2023-04-01T11:18:45.432Z,4.47
2023-04-01T11:21:44.811Z,6.13
2023-04-01T11:24:23.563Z,6.57
2023-04-01T11:27:05.929Z,38.70
2023-04-01T11:29:58.720Z,33.70
2023-04-01T11:32:37.209Z,34.40
2023-04-01T11:35:35.070Z,32.20
2023-04-01T11:38:16.608Z,23.25
2023-04-01T11:40:49.542Z,20.38
2023-04-01T11:43:32.780Z,20.63
2023-04-01T11:46:09.829Z,12.02
2023-04-01T11:49:00.199Z,10.35
2023-04-01T11:51:52.933Z,5.82
2023-04-01T11:54:30.679Z,7.93
2023-04-01T11:57:12.546Z,7.07
2023-04-01T11:59:54.621Z,5.15
2023-04-01T12:02:30.531Z,5.68
2023-04-01T12:05:20.913Z,6.18
2023-04-01T12:08:02.092Z,7.03
2023-04-01T12:10:39.710Z,5.13
2023-04-01T12:13:16.905Z,7.90
2023-04-01T12:15:58.783Z,5.18
2023-04-01T12:18:33.941Z,5.32
2023-04-01T12:21:16.909Z,11.75
2023-04-01T12:24:03.441Z,10.75
2023-04-01T12:26:43.031Z,11.52
2023-04-01T12:29:39.551Z,4.90
2023-04-01T12:32:19.504Z,7.45
2023-04-01T12:35:17.047Z,11.68
2023-04-01T12:37:53.701Z,6.50
2023-04-01T12:40:32.734Z,6.07
2023-04-01T12:43:12.794Z,4.88
2023-04-01T12:45:45.506Z,5.75
2023-04-01T12:48:40.485Z,8.73
2023-04-01T12:51:47.172Z,10.63
2023-04-01T12:54:48.154Z,12.13
2023-04-01T12:57:44.197Z,14.25
2023-04-01T13:00:27.732Z,14.27
2023-04-01T13:03:12.960Z,15.02
2023-04-01T13:05:56.792Z,12.93
2023-04-01T13:08:42.330Z,13.95
2023-04-01T13:11:22.410Z,11.82
2023-04-01T13:14:31.913Z,14.15
2023-04-01T13:17:09.756Z,15.93
2023-04-01T13:19:48.591Z,14.10
2023-04-01T13:22:32.282Z,14.23
2023-04-01T13:25:08.149Z,14.15
2023-04-01T13:27:42.549Z,14.98
2023-04-01T13:30:26.541Z,13.57
2023-04-01T13:33:03.804Z,11.50
2023-04-01T13:35:40.924Z,12.57
2023-04-01T13:38:30.488Z,14.15
2023-04-01T13:41:07.885Z,16.80
2023-04-01T13:43:41.485Z,16.52
2023-04-01T13:46:24.690Z,17.25
2023-04-01T13:49:07.161Z,17.48
2023-04-01T13:51:59.000Z,15.07
2023-04-01T13:54:53.624Z,17.80
2023-04-01T13:57:40.389Z,16.20
2023-04-01T14:00:41.025Z,14.80
2023-04-01T14:03:34.065Z,13.55
2023-04-01T14:06:12.107Z,18.13
2023-04-01T14:08:57.982Z,16.85
2023-04-01T14:11:35.852Z,16.67
2023-04-01T14:14:15.619Z,14.48
2023-04-01T14:17:29.622Z,19.35
2023-04-01T14:20:27.537Z,15.52
2023-04-01T14:23:15.678Z,23.55
2023-04-01T14:26:00.354Z,19.73
2023-04-01T14:28:34.515Z,17.60
2023-04-01T14:31:30.659Z,17.40
2023-04-01T14:34:13.313Z,21.88
2023-04-01T14:36:51.303Z,18.88
2023-04-01T14:39:41.231Z,21.23
2023-04-01T14:42:24.517Z,23.13
2023-04-01T14:45:09.927Z,20.50
2023-04-01T14:47:48.348Z,30.65
2023-04-01T14:50:19.969Z,33.20
2023-04-01T14:52:58.684Z,54.03
2023-04-01T14:55:33.585Z,37.15
2023-04-01T14:58:09.675Z,42.72
2023-04-01T15:00:56.441Z,53.63
2023-04-01T15:03:30.838Z,46.90
2023-04-01T15:06:20.664Z,38.83
2023-04-01T15:08:59.166Z,51.55
2023-04-01T15:11:42.095Z,30.98
2023-04-01T15:14:26.342Z,53.35
2023-04-01T15:17:03.159Z,42.15
2023-04-01T15:19:43.909Z,32.45
2023-04-01T15:22:39.438Z,34.78
2023-04-01T15:25:22.085Z,32.42
2023-04-01T15:27:57.528Z,34.95
2023-04-01T15:30:38.355Z,31.30
2023-04-01T15:33:34.167Z,58.30
2023-04-01T15:36:14.796Z,54.60
2023-04-01T15:38:52.885Z,54.33
2023-04-01T15:41:28.293Z,30.80
2023-04-01T15:43:55.801Z,50.00
2023-04-01T15:46:44.907Z,41.53
2023-04-01T15:49:24.015Z,23.15
2023-04-01T15:52:05.003Z,21.27
2023-04-01T15:55:02.942Z,30.95
2023-04-01T15:57:38.179Z,36.58
2023-04-01T16:00:18.751Z,42.88
2023-04-01T16:02:52.007Z,24.55
2023-04-01T16:05:36.419Z,31.77
2023-04-01T16:08:21.960Z,25.83
2023-04-01T16:11:01.141Z,34.30
2023-04-01T16:13:46.971Z,34.17
2023-04-01T16:16:25.631Z,18.58
2023-04-01T16:19:09.829Z,21.23
2023-04-01T16:21:45.207Z,28.35
2023-04-01T16:24:19.725Z,22.08
2023-04-01T16:26:55.679Z,24.88
2023-04-01T16:29:30.883Z,16.40
2023-04-01T16:32:12.364Z,29.45
2023-04-01T16:34:46.060Z,45.13
2023-04-01T16:37:18.041Z,48.40
2023-04-01T16:39:51.389Z,32.42
2023-04-01T16:42:28.085Z,61.55
2023-04-01T16:45:01.513Z,46.13
2023-04-01T16:47:33.332Z,47.95
2023-04-01T16:50:07.682Z,37.50
2023-04-01T16:52:50.520Z,32.13
2023-04-01T16:55:19.997Z,55.17
2023-04-01T16:57:53.630Z,58.63
2023-04-01T17:00:28.160Z,68.27
2023-04-01T17:03:06.372Z,57.80
2023-04-01T17:05:47.434Z,27.25
2023-04-01T17:08:26.355Z,59.97
2023-04-01T17:10:59.049Z,57.57
2023-04-01T17:13:37.412Z,29.52
2023-04-01T17:16:31.069Z,29.37
2023-04-01T17:19:07.301Z,32.30
2023-04-01T17:21:49.086Z,30.88
2023-04-01T17:24:32.469Z,30.53
2023-04-01T17:27:11.681Z,32.83
2023-04-01T17:30:03.288Z,26.17
2023-04-01T17:32:43.809Z,25.88
2023-04-01T17:35:16.588Z,25.80
2023-04-01T17:37:55.231Z,28.37
2023-04-01T17:40:35.869Z,28.47
2023-04-01T17:43:14.293Z,22.83
2023-04-01T17:45:49.155Z,39.23
2023-04-01T17:48:26.196Z,19.53
2023-04-01T17:51:04.469Z,18.67
2023-04-01T17:53:39.453Z,28.90
2023-04-01T17:56:13.821Z,17.37
2023-04-01T17:58:47.535Z,18.73
2023-04-01T18:01:28.505Z,19.07
2023-04-01T18:04:12.984Z,17.33
2023-04-01T18:06:56.291Z,20.70
2023-04-01T18:09:35.965Z,36.60
2023-04-01T18:12:14.902Z,26.17
2023-04-01T18:15:01.842Z,27.87
2023-04-01T18:17:43.910Z,28.17
2023-04-01T18:20:27.728Z,29.43
2023-04-01T18:22:59.056Z,27.83
2023-04-01T18:25:34.546Z,42.30
2023-04-01T18:28:20.119Z,32.70
2023-04-01T18:30:55.753Z,34.27
2023-04-01T18:33:30.365Z,34.40
2023-04-01T18:36:10.356Z,40.63
2023-04-01T18:38:41.317Z,58.13
2023-04-01T18:41:15.736Z,33.73
2023-04-01T18:43:57.165Z,25.77
2023-04-01T18:46:33.062Z,24.63
2023-04-01T18:49:10.019Z,21.42
2023-04-01T18:51:46.851Z,29.73
2023-04-01T18:54:17.503Z,22.58
2023-04-01T18:56:46.737Z,14.90
2023-04-01T18:59:22.097Z,13.17
2023-04-01T19:01:59.206Z,10.23
2023-04-01T19:04:37.743Z,11.10
2023-04-01T19:07:50.612Z,9.30
2023-04-01T19:10:26.631Z,21.47
2023-04-01T19:13:12.864Z,22.73
2023-04-01T19:15:46.449Z,16.80
2023-04-01T19:18:30.426Z,13.27
2023-04-01T19:21:03.660Z,18.67
2023-04-01T19:24:12.381Z,26.90
2023-04-01T19:26:46.143Z,24.77
2023-04-01T19:29:25.997Z,22.50
2023-04-01T19:32:05.100Z,19.00
2023-04-01T19:34:45.984Z,10.07
2023-04-01T19:37:27.216Z,10.23
2023-04-01T19:40:01.834Z,5.70
2023-04-01T19:42:40.405Z,9.77
2023-04-01T19:45:27.145Z,13.07
2023-04-01T19:48:04.101Z,7.75
2023-04-01T19:50:36.645Z,11.33
2023-04-01T19:53:15.828Z,13.38
2023-04-01T19:55:48.621Z,13.17
2023-04-01T19:58:22.735Z,14.82
2023-04-01T20:00:53.418Z,27.92
2023-04-01T20:03:36.474Z,13.10
2023-04-01T20:06:15.347Z,15.30
2023-04-01T20:08:52.751Z,8.20
2023-04-01T20:11:32.777Z,9.00
2023-04-01T20:14:10.102Z,9.73
2023-04-01T20:16:55.049Z,8.98
2023-04-01T20:19:30.630Z,10.37
2023-04-01T20:22:01.263Z,15.97
2023-04-01T20:24:36.284Z,9.07
2023-04-01T20:27:10.330Z,9.73
2023-04-01T20:29:44.244Z,8.83
2023-04-01T20:32:27.210Z,10.90
2023-04-01T20:35:19.803Z,6.00
2023-04-01T20:37:55.630Z,7.65
2023-04-01T20:40:34.007Z,8.13
2023-04-01T20:43:44.536Z,7.10
2023-04-01T20:46:20.942Z,17.80
2023-04-01T20:49:24.855Z,16.25
2023-04-01T20:51:56.792Z,9.67
2023-04-01T20:54:38.961Z,18.63
2023-04-01T20:57:13.258Z,13.38
2023-04-01T20:59:56.160Z,15.60
2023-04-01T21:02:49.222Z,15.10
2023-04-01T21:06:09.740Z,12.90
2023-04-01T21:08:48.895Z,12.30
2023-04-01T21:11:23.170Z,18.63
2023-04-01T21:14:09.153Z,9.03
2023-04-01T21:16:46.145Z,10.02
2023-04-01T21:19:37.300Z,9.82
2023-04-01T21:22:22.153Z,12.23
2023-04-01T21:25:23.599Z,7.15
2023-04-01T21:28:07.374Z,7.00
2023-04-01T21:30:49.214Z,7.70
2023-04-01T21:33:34.709Z,8.80
2023-04-01T21:36:12.347Z,5.57
2023-04-01T21:38:56.497Z,12.47
2023-04-01T21:41:46.561Z,12.73
2023-04-01T21:44:38.096Z,13.53
2023-04-01T21:47:40.418Z,15.77
2023-04-01T21:50:44.241Z,15.13
2023-04-01T21:54:08.670Z,12.82
2023-04-01T21:57:05.399Z,19.10
2023-04-01T22:00:23.232Z,17.80
2023-04-01T22:03:30.774Z,15.17
2023-04-01T22:06:15.325Z,16.20
2023-04-01T22:08:56.707Z,20.47
2023-04-01T22:11:34.281Z,16.77
2023-04-01T22:14:08.390Z,9.73
2023-04-01T22:16:42.994Z,17.47
2023-04-01T22:19:20.801Z,16.30
2023-04-01T22:22:02.445Z,18.73
2023-04-01T22:24:45.934Z,16.27
2023-04-01T22:27:23.227Z,14.57
2023-04-01T22:30:01.376Z,11.27
2023-04-01T22:32:33.949Z,14.70
2023-04-01T22:35:10.332Z,14.68
2023-04-01T22:37:52.839Z,13.33
2023-04-01T22:40:27.219Z,8.40
2023-04-01T22:43:00.036Z,6.73
2023-04-01T22:45:49.210Z,4.40
2023-04-01T22:48:22.726Z,4.50
2023-04-01T22:50:57.572Z,4.47
2023-04-01T22:53:43.016Z,10.07
2023-04-01T22:56:16.939Z,11.73
2023-04-01T22:58:49.529Z,23.10
2023-04-01T23:01:21.892Z,22.33
2023-04-01T23:03:51.856Z,25.63
2023-04-01T23:06:22.677Z,28.70
2023-04-01T23:09:07.085Z,34.80
2023-04-01T23:11:39.248Z,31.30
2023-04-01T23:14:29.811Z,33.70
2023-04-01T23:17:06.808Z,27.47
2023-04-01T23:19:39.743Z,30.63
2023-04-01T23:22:18.903Z,30.10
2023-04-01T23:24:55.009Z,24.33
2023-04-01T23:27:29.101Z,12.50
2023-04-01T23:29:56.554Z,15.95
2023-04-01T23:32:27.490Z,10.57
2023-04-01T23:34:58.024Z,14.87
2023-04-01T23:37:26.309Z,13.00
2023-04-01T23:39:57.763Z,18.67
2023-04-01T23:42:27.746Z,12.98
2023-04-01T23:44:58.110Z,21.10
2023-04-01T23:47:29.840Z,26.90
2023-04-01T23:49:59.259Z,21.83
2023-04-01T23:52:29.285Z,17.98
2023-04-01T23:55:01.264Z,26.70
2023-04-01T23:57:31.689Z,21.90
